Kibble, Illinois
Current Conditions -  °F | °C
As of 4:15 PM on Monday 24 Nov 2014 (Local Time) from KRSV Reporting Station
Scattered Clouds Scattered Clouds  
Wind Chill: -1°   Ceiling: Unl
Heat Index:   Visibility: 10mi
Dew Point: -1°   Wind: 21mph
Humidity: 70%   Direction: 260°W
Pressure: 29.81"   Gusts: 26mph
Location:  39.0119°N, 87.8886°W
Report Text: KRSV 242215Z AUTO 26018G23KT 10SM SCT042 SCT050 04/M01 A2981 RMK AO2 T00421008
Loading
Personal Weather Stations






























Interactive Weather Map New forecast layout! Learn more

10-Day Weather Forecast

Advertisements
Track Severe Weather on mobile